createdAt,value
2019-03-23T00:00:12.268Z,105.17
2019-03-23T00:02:41.746Z,98.73
2019-03-23T00:05:11.526Z,97.12
2019-03-23T00:07:41.075Z,94.22
2019-03-23T00:10:10.473Z,93.40
2019-03-23T00:12:40.286Z,89.17
2019-03-23T00:15:10.233Z,97.00
2019-03-23T00:17:40.103Z,100.07
2019-03-23T00:20:09.498Z,104.53
2019-03-23T00:22:38.995Z,100.90
2019-03-23T00:25:08.541Z,93.27
2019-03-23T00:27:37.832Z,94.17
2019-03-23T00:30:08.598Z,99.45
2019-03-23T00:32:38.136Z,94.35
2019-03-23T00:35:08.083Z,103.72
2019-03-23T00:37:37.459Z,101.40
2019-03-23T00:40:07.658Z,106.83
2019-03-23T00:42:36.952Z,101.35
2019-03-23T00:45:06.450Z,105.47
2019-03-23T00:47:35.771Z,115.50
2019-03-23T00:50:05.845Z,116.50
2019-03-23T00:52:35.332Z,100.02
2019-03-23T00:55:05.306Z,104.45
2019-03-23T00:57:34.635Z,102.02
2019-03-23T01:00:04.304Z,101.72
2019-03-23T01:02:33.731Z,100.18
2019-03-23T01:05:03.173Z,101.02
2019-03-23T01:07:32.472Z,106.87
2019-03-23T01:10:01.907Z,108.10
2019-03-23T01:12:31.280Z,108.90
2019-03-23T01:15:00.656Z,100.67
2019-03-23T01:17:30.063Z,112.27
2019-03-23T01:19:59.604Z,105.22
2019-03-23T01:22:28.928Z,114.00
2019-03-23T01:24:58.266Z,105.32
2019-03-23T01:27:27.605Z,99.70
2019-03-23T01:29:56.931Z,108.10
2019-03-23T01:32:26.239Z,108.17
2019-03-23T01:34:55.575Z,113.77
2019-03-23T01:37:24.917Z,116.25
2019-03-23T01:39:54.243Z,104.67
2019-03-23T01:42:23.586Z,108.75
2019-03-23T01:44:53.180Z,101.92
2019-03-23T01:47:23.225Z,109.60
2019-03-23T01:49:52.661Z,111.45
2019-03-23T01:52:22.071Z,99.15
2019-03-23T01:54:51.404Z,104.43
2019-03-23T01:57:20.789Z,101.42
2019-03-23T01:59:52.016Z,99.17
2019-03-23T02:02:22.129Z,101.20
2019-03-23T02:04:51.583Z,109.67
2019-03-23T02:07:20.871Z,117.10
2019-03-23T02:09:53.998Z,112.75
2019-03-23T02:12:23.935Z,108.05
2019-03-23T02:14:53.896Z,114.55
2019-03-23T02:17:23.406Z,104.12
2019-03-23T02:19:52.822Z,104.32
2019-03-23T02:22:22.185Z,105.12
2019-03-23T02:24:51.537Z,105.93
2019-03-23T02:27:20.958Z,106.72
2019-03-23T02:29:50.467Z,110.87
2019-03-23T02:32:19.884Z,98.17
2019-03-23T02:34:49.310Z,102.05
2019-03-23T02:37:27.564Z,103.55
2019-03-23T02:39:49.688Z,103.47
2019-03-23T02:42:19.072Z,105.92
2019-03-23T02:44:48.487Z,119.45
2019-03-23T02:47:17.800Z,107.50
2019-03-23T02:49:47.159Z,122.40
2019-03-23T02:52:16.620Z,108.65
2019-03-23T02:54:45.973Z,107.70
2019-03-23T02:57:15.328Z,101.70
2019-03-23T02:59:44.691Z,113.83
2019-03-23T03:02:14.005Z,107.77
2019-03-23T03:04:43.312Z,101.33
2019-03-23T03:07:12.640Z,112.08
2019-03-23T03:09:42.057Z,136.80
2019-03-23T03:12:11.409Z,107.67
2019-03-23T03:14:40.713Z,184.87
2019-03-23T03:17:10.053Z,131.70
2019-03-23T03:19:39.882Z,124.95
2019-03-23T03:22:09.219Z,130.12
2019-03-23T03:24:38.532Z,141.90
2019-03-23T03:27:07.859Z,126.72
2019-03-23T03:29:37.271Z,129.72
2019-03-23T03:32:06.603Z,213.40
2019-03-23T03:34:35.900Z,159.53
2019-03-23T03:37:05.363Z,212.02
2019-03-23T03:39:34.700Z,177.82
2019-03-23T03:42:04.412Z,174.60
2019-03-23T03:44:33.819Z,186.52
2019-03-23T03:47:03.158Z,158.20
2019-03-23T03:49:32.536Z,245.15
2019-03-23T03:52:01.929Z,171.30
2019-03-23T03:54:31.239Z,216.02
2019-03-23T03:57:00.658Z,149.75
2019-03-23T03:59:30.027Z,155.00
2019-03-23T04:01:59.495Z,163.75
2019-03-23T04:04:28.955Z,165.22
2019-03-23T04:06:58.277Z,150.35
2019-03-23T04:09:27.593Z,152.93
2019-03-23T04:11:57.114Z,183.60
2019-03-23T04:14:26.760Z,162.92
2019-03-23T04:16:56.191Z,171.65
2019-03-23T04:19:25.607Z,168.95
2019-03-23T04:21:54.981Z,167.60
2019-03-23T04:24:24.320Z,188.05
2019-03-23T04:26:53.629Z,243.20
2019-03-23T04:29:23.078Z,181.30
2019-03-23T04:31:52.428Z,274.92
2019-03-23T04:34:21.716Z,216.38
2019-03-23T04:36:51.158Z,178.85
2019-03-23T04:39:20.493Z,210.23
2019-03-23T04:41:49.910Z,178.75
2019-03-23T04:44:19.240Z,245.95
2019-03-23T04:46:48.655Z,262.72
2019-03-23T04:49:18.052Z,180.50
2019-03-23T04:51:47.418Z,167.65
2019-03-23T04:54:16.887Z,155.63
2019-03-23T04:56:46.233Z,150.32
2019-03-23T04:59:15.613Z,184.67
2019-03-23T05:01:45.005Z,158.50
2019-03-23T05:04:14.419Z,140.40
2019-03-23T05:06:43.775Z,173.93
2019-03-23T05:09:13.313Z,163.35
2019-03-23T05:11:42.678Z,162.75
2019-03-23T05:14:12.063Z,149.57
2019-03-23T05:16:41.383Z,129.18
2019-03-23T05:19:10.875Z,147.55
2019-03-23T05:21:40.301Z,129.80
2019-03-23T05:24:09.775Z,165.77
2019-03-23T05:26:39.265Z,149.65
2019-03-23T05:29:08.607Z,108.53
2019-03-23T05:31:38.032Z,118.57
2019-03-23T05:34:07.362Z,118.22
2019-03-23T05:36:36.830Z,138.07
2019-03-23T05:39:07.212Z,136.67
2019-03-23T05:41:36.623Z,138.75
2019-03-23T05:44:06.059Z,166.32
2019-03-23T05:46:35.491Z,190.10
2019-03-23T05:49:04.912Z,167.20
2019-03-23T05:51:34.290Z,133.07
2019-03-23T05:54:03.774Z,128.30
2019-03-23T05:56:33.229Z,127.60
2019-03-23T05:59:02.572Z,147.70
2019-03-23T06:01:31.955Z,139.95
2019-03-23T06:04:01.295Z,148.13
2019-03-23T06:06:30.660Z,131.12
2019-03-23T06:09:01.185Z,123.43
2019-03-23T06:11:30.563Z,121.15
2019-03-23T06:13:59.883Z,113.83
2019-03-23T06:16:29.235Z,110.32
2019-03-23T06:18:58.523Z,121.90
2019-03-23T06:21:27.875Z,109.85
2019-03-23T06:23:57.194Z,101.60
2019-03-23T06:26:26.499Z,106.78
2019-03-23T06:28:55.812Z,93.70
2019-03-23T06:31:25.217Z,83.25
2019-03-23T06:33:54.659Z,84.65
2019-03-23T06:36:23.964Z,84.45
2019-03-23T06:38:53.415Z,92.02
2019-03-23T06:41:22.816Z,83.27
2019-03-23T06:43:52.208Z,78.12
2019-03-23T06:46:21.570Z,78.85
2019-03-23T06:48:50.892Z,81.30
2019-03-23T06:51:27.521Z,76.63
2019-03-23T06:53:56.969Z,78.80
2019-03-23T06:56:26.376Z,67.95
2019-03-23T06:58:55.676Z,72.27
2019-03-23T07:01:25.044Z,74.80
2019-03-23T07:03:54.444Z,72.58
2019-03-23T07:06:25.309Z,68.12
2019-03-23T07:09:16.183Z,69.60
2019-03-23T07:11:42.563Z,65.78
2019-03-23T07:14:11.880Z,63.60
2019-03-23T07:16:43.419Z,66.97
2019-03-23T07:19:12.889Z,66.30
2019-03-23T07:21:44.673Z,66.97
2019-03-23T07:24:14.007Z,62.23
2019-03-23T07:26:43.452Z,58.00
2019-03-23T07:29:13.096Z,57.93
2019-03-23T07:31:42.900Z,55.60
2019-03-23T07:34:12.263Z,57.03
2019-03-23T07:36:41.770Z,54.00
2019-03-23T07:39:11.126Z,52.38
2019-03-23T07:41:40.508Z,50.23
2019-03-23T07:44:09.851Z,49.33
2019-03-23T07:46:39.253Z,50.75
2019-03-23T07:49:08.590Z,50.83
2019-03-23T07:51:37.930Z,47.93
2019-03-23T07:54:07.321Z,48.28
2019-03-23T07:56:36.686Z,50.12
2019-03-23T07:59:06.023Z,53.55
2019-03-23T08:01:35.521Z,48.17
2019-03-23T08:04:04.952Z,50.80
2019-03-23T08:06:34.381Z,49.38
2019-03-23T08:09:04.990Z,50.12
2019-03-23T08:11:34.385Z,51.35
2019-03-23T08:14:03.746Z,52.80
2019-03-23T08:16:33.072Z,53.45
2019-03-23T08:19:02.424Z,52.75
2019-03-23T08:21:31.874Z,55.90
2019-03-23T08:24:01.335Z,52.65
2019-03-23T08:26:30.764Z,51.83
2019-03-23T08:29:00.360Z,52.10
2019-03-23T08:31:29.757Z,51.90
2019-03-23T08:33:59.231Z,50.28
2019-03-23T08:36:28.615Z,51.58
2019-03-23T08:38:58.015Z,52.33
2019-03-23T08:41:27.642Z,52.05
2019-03-23T08:43:56.993Z,53.28
2019-03-23T08:46:26.453Z,53.90
2019-03-23T08:48:55.806Z,52.67
2019-03-23T08:51:25.199Z,55.80
2019-03-23T08:53:54.689Z,52.90
2019-03-23T08:56:24.076Z,51.45
2019-03-23T08:58:52.856Z,50.35
2019-03-23T09:01:22.362Z,53.60
2019-03-23T09:04:10.464Z,53.33
2019-03-23T09:06:38.418Z,51.23
2019-03-23T09:09:08.139Z,53.30
2019-03-23T09:11:37.660Z,53.92
2019-03-23T09:14:07.211Z,49.20
2019-03-23T09:16:36.731Z,55.17
2019-03-23T09:19:06.211Z,50.58
2019-03-23T09:21:35.658Z,52.48
2019-03-23T09:24:05.095Z,51.48
2019-03-23T09:26:34.435Z,50.95
2019-03-23T09:29:03.804Z,49.53
2019-03-23T09:31:33.415Z,49.42
2019-03-23T09:34:02.840Z,48.38
2019-03-23T09:36:32.400Z,50.92
2019-03-23T09:39:01.807Z,46.48
2019-03-23T09:41:31.283Z,46.90
2019-03-23T09:44:00.641Z,45.55
2019-03-23T09:46:30.136Z,47.05
2019-03-23T09:48:59.777Z,48.13
2019-03-23T09:51:29.405Z,45.90
2019-03-23T09:53:59.282Z,47.15
2019-03-23T09:56:28.660Z,48.63
2019-03-23T09:58:58.104Z,49.03
2019-03-23T10:01:27.945Z,50.23
2019-03-23T10:03:57.580Z,48.00
2019-03-23T10:06:27.183Z,46.92
2019-03-23T10:08:56.734Z,46.10
2019-03-23T10:11:26.234Z,46.98
2019-03-23T10:13:55.602Z,47.43
2019-03-23T10:16:25.152Z,47.47
2019-03-23T10:18:54.731Z,48.92
2019-03-23T10:21:24.119Z,46.37
2019-03-23T10:23:54.608Z,45.65
2019-03-23T10:26:24.243Z,44.40
2019-03-23T10:28:53.668Z,48.17
2019-03-23T10:31:23.146Z,43.45
2019-03-23T10:33:52.760Z,44.48
2019-03-23T10:36:22.352Z,41.27
2019-03-23T10:38:51.978Z,42.62
2019-03-23T10:41:22.864Z,40.95
2019-03-23T10:43:52.264Z,38.63
2019-03-23T10:46:21.672Z,41.28
2019-03-23T10:48:51.019Z,39.03
2019-03-23T10:51:20.489Z,37.42
2019-03-23T10:53:49.859Z,35.70
2019-03-23T10:56:19.289Z,37.20
2019-03-23T10:58:48.647Z,39.50
2019-03-23T11:01:18.022Z,39.60
2019-03-23T11:03:47.436Z,39.08
2019-03-23T11:06:16.926Z,40.20
2019-03-23T11:08:46.352Z,39.27
2019-03-23T11:11:15.816Z,39.88
2019-03-23T11:13:45.215Z,40.78
2019-03-23T11:16:14.564Z,41.45
2019-03-23T11:18:43.903Z,41.95
2019-03-23T11:21:13.284Z,67.00
2019-03-23T11:23:42.607Z,74.27
2019-03-23T11:26:11.953Z,44.13
2019-03-23T11:28:41.367Z,41.70
2019-03-23T11:31:10.785Z,44.23
2019-03-23T11:33:40.178Z,44.35
2019-03-23T11:36:09.530Z,48.45
2019-03-23T11:38:38.857Z,48.08
2019-03-23T11:41:08.409Z,51.42
2019-03-23T11:43:37.777Z,49.10
2019-03-23T11:46:07.174Z,46.08
2019-03-23T11:48:36.606Z,44.40
2019-03-23T11:51:06.099Z,48.48
2019-03-23T11:53:35.479Z,49.48
2019-03-23T11:56:04.811Z,49.03
2019-03-23T11:58:34.135Z,51.40
2019-03-23T12:01:03.604Z,55.88
2019-03-23T12:03:33.128Z,53.58
2019-03-23T12:06:02.653Z,53.80
2019-03-23T12:08:32.083Z,54.20
2019-03-23T12:11:03.166Z,51.63
2019-03-23T12:13:32.805Z,49.85
2019-03-23T12:16:02.231Z,48.95
2019-03-23T12:18:31.589Z,46.08
2019-03-23T12:21:00.940Z,45.48
2019-03-23T12:23:30.350Z,46.30
2019-03-23T12:25:59.744Z,50.10
2019-03-23T12:28:29.157Z,89.55
2019-03-23T12:30:58.595Z,68.37
2019-03-23T12:33:27.955Z,56.53
2019-03-23T12:35:57.440Z,47.62
2019-03-23T12:38:26.897Z,45.50
2019-03-23T12:40:57.077Z,46.95
2019-03-23T12:43:26.465Z,47.60
2019-03-23T12:45:55.869Z,47.33
2019-03-23T12:48:25.205Z,46.93
2019-03-23T12:50:54.664Z,49.20
2019-03-23T12:53:24.020Z,46.92
2019-03-23T12:55:53.431Z,49.33
2019-03-23T12:58:22.962Z,51.02
2019-03-23T13:00:52.427Z,50.23
2019-03-23T13:03:21.885Z,50.65
2019-03-23T13:05:51.749Z,52.85
2019-03-23T13:08:21.271Z,51.80
2019-03-23T13:10:50.608Z,50.90
2019-03-23T13:13:20.006Z,54.77
2019-03-23T13:15:49.336Z,52.50
2019-03-23T13:18:26.888Z,53.13
2019-03-23T13:20:49.961Z,49.25
2019-03-23T13:23:19.401Z,47.88
2019-03-23T13:25:48.869Z,48.83
2019-03-23T13:28:18.353Z,48.75
2019-03-23T13:30:47.884Z,45.10
2019-03-23T13:33:17.401Z,45.15
2019-03-23T13:35:46.888Z,49.53
2019-03-23T13:38:20.785Z,49.33
2019-03-23T13:40:50.337Z,46.05
2019-03-23T13:43:19.766Z,45.90
2019-03-23T13:45:49.175Z,44.95
2019-03-23T13:48:18.536Z,43.25
2019-03-23T13:50:48.023Z,42.88
2019-03-23T13:53:17.441Z,43.60
2019-03-23T13:55:46.864Z,41.28
2019-03-23T13:58:16.401Z,42.00
2019-03-23T14:00:45.910Z,41.83
2019-03-23T14:03:15.549Z,39.00
2019-03-23T14:05:44.971Z,39.05
2019-03-23T14:08:14.472Z,38.80
2019-03-23T14:10:44.017Z,37.93
2019-03-23T14:13:15.808Z,37.38
2019-03-23T14:15:45.656Z,40.52
2019-03-23T14:18:15.085Z,37.75
2019-03-23T14:20:44.457Z,37.10
2019-03-23T14:23:13.972Z,34.05
2019-03-23T14:25:43.385Z,32.88
2019-03-23T14:28:12.732Z,33.03
2019-03-23T14:30:42.180Z,32.65
2019-03-23T14:33:11.656Z,32.95
2019-03-23T14:35:41.090Z,34.08
2019-03-23T14:38:10.463Z,34.67
2019-03-23T14:40:41.405Z,35.60
2019-03-23T14:43:10.928Z,33.63
2019-03-23T14:45:40.398Z,31.33
2019-03-23T14:48:09.890Z,31.10
2019-03-23T14:50:39.250Z,33.65
2019-03-23T14:53:08.723Z,34.33
2019-03-23T14:55:38.170Z,31.62
2019-03-23T14:58:07.584Z,35.78
2019-03-23T15:00:37.083Z,34.20
2019-03-23T15:03:06.596Z,34.67
2019-03-23T15:05:36.033Z,32.60
2019-03-23T15:08:05.701Z,32.53
2019-03-23T15:10:35.237Z,35.05
2019-03-23T15:13:08.582Z,36.35
2019-03-23T15:15:38.085Z,39.25
2019-03-23T15:18:07.833Z,36.77
2019-03-23T15:20:40.308Z,34.70
2019-03-23T15:23:12.723Z,39.67
2019-03-23T15:25:42.506Z,37.00
2019-03-23T15:28:12.061Z,41.80
2019-03-23T15:30:41.424Z,33.53
2019-03-23T15:33:12.672Z,34.98
2019-03-23T15:35:42.199Z,37.33
2019-03-23T15:38:11.563Z,37.90
2019-03-23T15:40:40.978Z,35.20
2019-03-23T15:43:10.380Z,29.15
2019-03-23T15:45:39.679Z,28.85
2019-03-23T15:48:09.058Z,25.60
2019-03-23T15:50:38.444Z,25.62
2019-03-23T15:53:08.007Z,27.82
2019-03-23T15:55:37.341Z,25.20
2019-03-23T15:58:06.835Z,26.25
2019-03-23T16:00:36.538Z,24.20
2019-03-23T16:03:05.988Z,27.50
2019-03-23T16:05:35.455Z,28.52
2019-03-23T16:08:04.928Z,25.88
2019-03-23T16:10:34.440Z,26.15
2019-03-23T16:13:03.799Z,23.60
2019-03-23T16:15:33.275Z,24.25
2019-03-23T16:18:02.652Z,24.85
2019-03-23T16:20:32.596Z,25.48
2019-03-23T16:23:02.119Z,29.82
2019-03-23T16:25:31.471Z,27.67
2019-03-23T16:28:00.773Z,26.80
2019-03-23T16:30:32.547Z,29.33
2019-03-23T16:33:02.040Z,27.52
2019-03-23T16:35:31.378Z,28.40
2019-03-23T16:38:00.753Z,31.12
2019-03-23T16:40:30.394Z,26.77
2019-03-23T16:42:59.767Z,27.17
2019-03-23T16:45:29.274Z,30.15
2019-03-23T16:48:00.268Z,24.43
2019-03-23T16:50:29.719Z,26.68
2019-03-23T16:52:59.088Z,23.35
2019-03-23T16:55:28.649Z,27.35
2019-03-23T16:57:58.119Z,62.62
2019-03-23T17:00:37.576Z,28.17
2019-03-23T17:03:07.271Z,22.48
2019-03-23T17:05:36.671Z,22.45
2019-03-23T17:08:06.390Z,21.12
2019-03-23T17:10:36.301Z,20.82
2019-03-23T17:13:05.838Z,18.35
2019-03-23T17:15:35.257Z,19.23
2019-03-23T17:18:04.781Z,22.58
2019-03-23T17:20:34.361Z,19.25
2019-03-23T17:23:03.811Z,19.45
2019-03-23T17:25:33.304Z,16.65
2019-03-23T17:28:02.710Z,15.15
2019-03-23T17:30:32.488Z,16.07
2019-03-23T17:33:01.921Z,14.60
2019-03-23T17:35:31.649Z,13.62
2019-03-23T17:38:01.035Z,14.40
2019-03-23T17:40:30.443Z,13.53
2019-03-23T17:43:05.916Z,12.73
2019-03-23T17:45:31.103Z,13.08
2019-03-23T17:48:00.630Z,12.78
2019-03-23T17:50:30.138Z,11.30
2019-03-23T17:52:59.511Z,13.00
2019-03-23T17:55:28.911Z,13.57
2019-03-23T17:57:58.359Z,12.80
2019-03-23T18:00:28.459Z,12.88
2019-03-23T18:02:57.926Z,12.03
2019-03-23T18:05:27.429Z,13.60
2019-03-23T18:07:56.823Z,12.70
2019-03-23T18:10:28.206Z,13.62
2019-03-23T18:12:57.398Z,14.45
2019-03-23T18:15:26.922Z,13.53
2019-03-23T18:17:56.427Z,15.10
2019-03-23T18:20:26.001Z,13.80
2019-03-23T18:22:55.601Z,13.58
2019-03-23T18:25:25.109Z,14.55
2019-03-23T18:27:54.730Z,14.07
2019-03-23T18:30:45.799Z,13.98
2019-03-23T18:33:15.160Z,14.95
2019-03-23T18:35:44.775Z,13.72
2019-03-23T18:38:14.169Z,13.48
2019-03-23T18:40:43.576Z,15.13
2019-03-23T18:43:13.052Z,17.50
2019-03-23T18:45:42.609Z,21.42
2019-03-23T18:48:12.055Z,17.25
2019-03-23T18:50:42.746Z,18.12
2019-03-23T18:53:12.329Z,52.85
2019-03-23T18:55:41.757Z,30.72
2019-03-23T18:58:11.309Z,53.90
2019-03-23T19:00:42.369Z,23.70
2019-03-23T19:03:12.054Z,24.75
2019-03-23T19:05:41.563Z,25.65
2019-03-23T19:08:11.975Z,28.00
2019-03-23T19:10:41.685Z,26.20
2019-03-23T19:13:11.382Z,30.55
2019-03-23T19:15:40.728Z,29.13
2019-03-23T19:18:10.313Z,32.60
2019-03-23T19:20:39.753Z,29.77
2019-03-23T19:23:09.034Z,30.80
2019-03-23T19:25:38.509Z,30.82
2019-03-23T19:28:08.090Z,29.27
2019-03-23T19:30:37.501Z,34.67
2019-03-23T19:33:07.032Z,33.38
2019-03-23T19:35:36.578Z,30.75
2019-03-23T19:38:06.236Z,32.58
2019-03-23T19:40:35.732Z,35.45
2019-03-23T19:43:05.296Z,33.83
2019-03-23T19:45:34.734Z,33.42
2019-03-23T19:48:04.309Z,35.45
2019-03-23T19:50:33.771Z,34.43
2019-03-23T19:53:03.139Z,33.20
2019-03-23T19:55:32.624Z,34.08
2019-03-23T19:58:02.098Z,38.30
2019-03-23T20:00:31.494Z,35.05
2019-03-23T20:03:01.066Z,34.80
2019-03-23T20:05:30.462Z,33.50
2019-03-23T20:07:59.899Z,40.48
2019-03-23T20:10:29.317Z,35.20
2019-03-23T20:12:58.919Z,37.58
2019-03-23T20:15:28.536Z,37.00
2019-03-23T20:17:57.987Z,40.60
2019-03-23T20:20:27.560Z,38.53
2019-03-23T20:22:57.111Z,39.88
2019-03-23T20:25:26.651Z,37.83
2019-03-23T20:27:56.592Z,38.35
2019-03-23T20:30:26.012Z,35.52
2019-03-23T20:32:55.467Z,37.78
2019-03-23T20:35:24.987Z,34.05
2019-03-23T20:37:54.455Z,34.75
2019-03-23T20:40:24.018Z,34.60
2019-03-23T20:42:53.739Z,34.83
2019-03-23T20:45:30.713Z,35.03
2019-03-23T20:48:00.627Z,35.23
2019-03-23T20:50:32.566Z,31.20
2019-03-23T20:53:01.945Z,32.53
2019-03-23T20:55:31.897Z,33.15
2019-03-23T20:58:01.325Z,32.75
2019-03-23T21:00:30.675Z,33.60
2019-03-23T21:03:00.009Z,36.70
2019-03-23T21:05:33.827Z,38.15
2019-03-23T21:08:00.562Z,32.55
2019-03-23T21:10:29.882Z,35.50
2019-03-23T21:12:59.449Z,35.25
2019-03-23T21:15:29.031Z,34.45
2019-03-23T21:17:58.455Z,37.20
2019-03-23T21:20:27.919Z,34.45
2019-03-23T21:22:57.358Z,34.78
2019-03-23T21:25:26.799Z,33.55
2019-03-23T21:27:56.300Z,33.65
2019-03-23T21:30:25.802Z,34.40
2019-03-23T21:32:55.167Z,37.67
2019-03-23T21:35:24.536Z,33.40
2019-03-23T21:37:54.079Z,37.17
2019-03-23T21:40:23.686Z,36.80
2019-03-23T21:42:53.038Z,35.60
2019-03-23T21:45:22.664Z,33.10
2019-03-23T21:47:52.179Z,31.02
2019-03-23T21:50:21.593Z,35.90
2019-03-23T21:52:50.969Z,34.15
2019-03-23T21:55:20.322Z,33.08
2019-03-23T21:57:49.868Z,33.42
2019-03-23T22:00:31.141Z,33.40
2019-03-23T22:03:00.807Z,33.35
2019-03-23T22:05:30.545Z,38.92
2019-03-23T22:08:00.137Z,38.33
2019-03-23T22:10:29.771Z,37.40
2019-03-23T22:12:59.188Z,36.93
2019-03-23T22:15:32.237Z,34.23
2019-03-23T22:18:01.933Z,38.60
2019-03-23T22:20:31.602Z,36.40
2019-03-23T22:23:01.365Z,36.88
2019-03-23T22:25:30.762Z,35.83
2019-03-23T22:28:00.364Z,36.98
2019-03-23T22:30:31.348Z,34.45
2019-03-23T22:33:00.837Z,39.67
2019-03-23T22:35:30.499Z,35.78
2019-03-23T22:38:03.069Z,40.83
2019-03-23T22:40:32.617Z,38.85
2019-03-23T22:43:02.162Z,38.55
2019-03-23T22:45:31.518Z,40.43
2019-03-23T22:48:00.910Z,37.83
2019-03-23T22:50:30.317Z,40.48
2019-03-23T22:53:00.029Z,44.05
2019-03-23T22:55:29.607Z,43.02
2019-03-23T22:57:59.061Z,41.70
2019-03-23T23:00:46.726Z,48.80
2019-03-23T23:03:16.398Z,46.40
2019-03-23T23:05:45.944Z,48.83
2019-03-23T23:08:15.437Z,46.65
2019-03-23T23:10:44.841Z,45.95
2019-03-23T23:13:14.641Z,44.90
2019-03-23T23:15:44.113Z,46.33
2019-03-23T23:18:13.691Z,43.65
2019-03-23T23:20:43.108Z,49.05
2019-03-23T23:23:12.488Z,40.55
2019-03-23T23:25:41.917Z,43.08
2019-03-23T23:28:11.215Z,46.70
2019-03-23T23:30:40.729Z,44.83
2019-03-23T23:33:10.024Z,46.25
2019-03-23T23:35:39.469Z,46.13
2019-03-23T23:38:08.978Z,42.67
2019-03-23T23:40:38.322Z,48.73
2019-03-23T23:43:07.669Z,42.27
2019-03-23T23:45:37.062Z,51.90
2019-03-23T23:48:06.578Z,49.33
2019-03-23T23:50:35.904Z,46.60
2019-03-23T23:53:05.570Z,48.48
2019-03-23T23:55:35.017Z,53.17
2019-03-23T23:58:04.570Z,48.65
